createdAt,value
2019-04-11T00:04:08.596Z,1022.91
2019-04-11T00:09:08.533Z,1022.95
2019-04-11T00:14:08.056Z,1022.99
2019-04-11T00:18:06.522Z,1023.06
2019-04-11T00:23:08.035Z,1023.04
2019-04-11T00:28:07.464Z,1023.01
2019-04-11T00:33:06.119Z,1023.11
2019-04-11T00:38:07.682Z,1023.07
2019-04-11T00:43:07.330Z,1023.14
2019-04-11T00:47:06.907Z,1023.16
2019-04-11T00:48:06.173Z,1023.16
2019-04-11T00:52:06.707Z,1023.23
2019-04-11T00:57:06.534Z,1023.2
2019-04-11T01:02:09.361Z,1023.33
2019-04-11T01:07:10.978Z,1023.3
2019-04-11T01:12:08.062Z,1023.34
2019-04-11T01:17:07.807Z,1023.39
2019-04-11T01:22:06.288Z,1023.38
2019-04-11T01:27:07.514Z,1023.41
2019-04-11T01:31:06.460Z,1023.3
2019-04-11T01:36:06.980Z,1023.36
2019-04-11T01:41:06.574Z,1023.36
2019-04-11T01:46:07.480Z,1023.34
2019-04-11T01:51:05.956Z,1023.4
2019-04-11T01:56:07.190Z,1023.39
2019-04-11T02:00:10.842Z,1023.48
2019-04-11T02:01:06.343Z,1023.48
2019-04-11T02:05:06.104Z,1023.52
2019-04-11T02:10:06.046Z,1023.51
2019-04-11T02:15:08.245Z,1023.53
2019-04-11T02:20:06.959Z,1023.54
2019-04-11T02:25:06.567Z,1023.53
2019-04-11T02:30:08.743Z,1023.58
2019-04-11T02:34:11.198Z,1023.64
2019-04-11T02:40:07.504Z,1023.61
2019-04-11T02:44:38.154Z,1023.74
2019-04-11T02:49:08.022Z,1023.76
2019-04-11T02:54:07.438Z,1023.8
2019-04-11T02:59:06.250Z,1023.86
2019-04-11T03:04:08.212Z,1023.81
2019-04-11T03:09:08.333Z,1023.86
2019-04-11T03:14:11.984Z,1023.9
2019-04-11T03:18:09.345Z,1023.89
2019-04-11T03:23:09.723Z,1023.86
2019-04-11T03:28:11.892Z,1023.87
2019-04-11T03:38:29.163Z,1023.96
2019-04-11T03:43:48.430Z,1023.93
2019-04-11T03:48:50.282Z,1023.95
2019-04-11T03:53:12.241Z,1023.89
2019-04-11T03:58:09.431Z,1023.96
2019-04-11T04:02:14.309Z,1024.02
2019-04-11T04:07:11.059Z,1024.12
2019-04-11T04:12:11.391Z,1024.13
2019-04-11T04:17:11.731Z,1024.24
2019-04-11T04:22:08.720Z,1024.24
2019-04-11T04:27:07.555Z,1024.25
2019-04-11T04:32:09.019Z,1024.32
2019-04-11T04:36:08.590Z,1024.42
2019-04-11T04:37:08.711Z,1024.42
2019-04-11T04:41:17.457Z,1024.47
2019-04-11T04:46:59.760Z,1024.53
2019-04-11T04:51:08.808Z,1024.59
2019-04-11T04:56:06.793Z,1024.7
2019-04-11T05:01:08.294Z,1024.71
2019-04-11T05:06:07.702Z,1024.75
2019-04-11T05:11:07.499Z,1024.8
2019-04-11T05:16:12.764Z,1024.81
2019-04-11T05:20:07.632Z,1024.95
2019-04-11T05:21:06.790Z,1024.95
2019-04-11T05:25:08.790Z,1024.92
2019-04-11T05:30:11.150Z,1024.98
2019-04-11T05:35:08.883Z,1025.06
2019-04-11T05:40:09.191Z,1025.05
2019-04-11T05:45:23.434Z,1025.09
2019-04-11T05:50:14.088Z,1025.16
2019-04-11T05:54:07.966Z,1025.17
2019-04-11T05:59:07.373Z,1025.19
2019-04-11T06:04:16.187Z,1025.28
2019-04-11T06:09:15.933Z,1025.21
2019-04-11T06:14:09.607Z,1025.23
2019-04-11T06:19:06.776Z,1025.34
2019-04-11T06:24:08.131Z,1025.23
2019-04-11T06:28:06.306Z,1025.24
2019-04-11T06:33:06.437Z,1025.33
2019-04-11T06:38:06.091Z,1025.33
2019-04-11T06:43:06.048Z,1025.32
2019-04-11T06:48:07.094Z,1025.36
2019-04-11T06:53:07.750Z,1025.36
2019-04-11T06:58:06.934Z,1025.35
2019-04-11T07:03:25.839Z,1025.32
2019-04-11T07:07:06.915Z,1025.29
2019-04-11T07:12:05.936Z,1025.38
2019-04-11T07:17:08.818Z,1025.42
2019-04-11T07:22:06.857Z,1025.45
2019-04-11T07:27:07.187Z,1025.44
2019-04-11T07:32:06.562Z,1025.39
2019-04-11T07:37:06.801Z,1025.46
2019-04-11T07:42:07.029Z,1025.45
2019-04-11T07:46:06.822Z,1025.52
2019-04-11T07:51:06.514Z,1025.4
2019-04-11T07:56:06.076Z,1025.43
2019-04-11T08:01:06.154Z,1025.45
2019-04-11T08:06:07.457Z,1025.48
2019-04-11T08:10:06.602Z,1025.43
2019-04-11T08:15:08.955Z,1025.49
2019-04-11T08:20:05.947Z,1025.58
2019-04-11T08:25:07.158Z,1025.51
2019-04-11T08:30:08.688Z,1025.5
2019-04-11T08:35:06.708Z,1025.47
2019-04-11T08:40:06.555Z,1025.41
2019-04-11T08:45:08.178Z,1025.49
2019-04-11T08:49:07.971Z,1025.41
2019-04-11T08:54:08.798Z,1025.5
2019-04-11T08:59:07.269Z,1025.53
2019-04-11T09:04:08.995Z,1025.58
2019-04-11T09:09:07.000Z,1025.54
2019-04-11T09:13:09.134Z,1025.48
2019-04-11T09:18:15.230Z,1025.49
2019-04-11T09:23:07.556Z,1025.44
2019-04-11T09:28:06.980Z,1025.47
2019-04-11T09:33:08.767Z,1025.55
2019-04-11T09:38:08.367Z,1025.5
2019-04-11T09:42:07.252Z,1025.52
2019-04-11T09:47:06.045Z,1025.54
2019-04-11T09:52:07.229Z,1025.55
2019-04-11T09:57:07.785Z,1025.56
2019-04-11T10:02:08.403Z,1025.56
2019-04-11T10:07:06.980Z,1025.54
2019-04-11T10:12:07.735Z,1025.49
2019-04-11T10:16:07.419Z,1025.57
2019-04-11T10:21:06.833Z,1025.51
2019-04-11T10:26:07.577Z,1025.59
2019-04-11T10:31:06.706Z,1025.6
2019-04-11T10:36:07.114Z,1025.52
2019-04-11T10:41:06.729Z,1025.48
2019-04-11T10:46:07.127Z,1025.48
2019-04-11T10:50:07.024Z,1025.45
2019-04-11T10:55:06.644Z,1025.48
2019-04-11T11:00:07.747Z,1025.59
2019-04-11T11:05:07.065Z,1025.47
2019-04-11T11:10:07.147Z,1025.48
2019-04-11T11:15:07.913Z,1025.49
2019-04-11T11:20:16.262Z,1025.53
2019-04-11T11:24:07.581Z,1025.46
2019-04-11T11:29:10.243Z,1025.58
2019-04-11T11:34:07.170Z,1025.44
2019-04-11T11:39:06.733Z,1025.57
2019-04-11T11:44:07.960Z,1025.58
2019-04-11T11:49:07.897Z,1025.65
2019-04-11T11:54:07.135Z,1025.71
2019-04-11T11:58:07.623Z,1025.66
2019-04-11T12:03:06.761Z,1025.75
2019-04-11T12:08:08.687Z,1025.78
2019-04-11T12:13:08.480Z,1025.73
2019-04-11T12:18:07.409Z,1025.75
2019-04-11T12:23:06.618Z,1025.71
2019-04-11T12:27:08.369Z,1025.66
2019-04-11T12:28:10.053Z,1025.66
2019-04-11T12:32:06.524Z,1025.68
2019-04-11T12:37:06.858Z,1025.7
2019-04-11T12:42:06.283Z,1025.64
2019-04-11T12:47:07.757Z,1025.62
2019-04-11T12:52:06.490Z,1025.62
2019-04-11T12:56:06.121Z,1025.56
2019-04-11T12:57:06.054Z,1025.56
2019-04-11T13:01:06.229Z,1025.61
2019-04-11T13:06:06.501Z,1025.62
2019-04-11T13:11:06.019Z,1025.6
2019-04-11T13:16:12.146Z,1025.61
2019-04-11T13:21:06.003Z,1025.54
2019-04-11T13:26:06.088Z,1025.68
2019-04-11T13:30:09.009Z,1025.68
2019-04-11T13:31:06.647Z,1025.68
2019-04-11T13:35:06.073Z,1025.77
2019-04-11T13:40:07.419Z,1025.65
2019-04-11T13:45:07.464Z,1025.64
2019-04-11T13:50:16.175Z,1025.53
2019-04-11T13:55:06.060Z,1025.46
2019-04-11T14:00:09.245Z,1025.47
2019-04-11T14:04:08.593Z,1025.48
2019-04-11T14:09:06.503Z,1025.42
2019-04-11T14:14:06.855Z,1025.42
2019-04-11T14:19:07.159Z,1025.5
2019-04-11T14:24:06.885Z,1025.48
2019-04-11T14:29:06.525Z,1025.39
2019-04-11T14:34:06.746Z,1025.51
2019-04-11T14:38:06.798Z,1025.51
2019-04-11T14:43:06.723Z,1025.44
2019-04-11T14:48:11.042Z,1025.46
2019-04-11T14:53:06.721Z,1025.49
2019-04-11T14:58:06.690Z,1025.61
2019-04-11T15:03:07.170Z,1025.47
2019-04-11T15:07:07.520Z,1025.56
2019-04-11T15:12:06.199Z,1025.57
2019-04-11T15:17:06.952Z,1025.57
2019-04-11T15:22:06.316Z,1025.62
2019-04-11T15:27:06.512Z,1025.67
2019-04-11T15:32:06.796Z,1025.7
2019-04-11T15:37:06.345Z,1025.74
2019-04-11T15:41:06.543Z,1025.67
2019-04-11T15:42:10.531Z,1025.67
2019-04-11T15:46:06.207Z,1025.75
2019-04-11T15:51:07.021Z,1025.76
2019-04-11T15:56:07.812Z,1025.72
2019-04-11T16:01:06.882Z,1025.78
2019-04-11T16:06:06.349Z,1025.71
2019-04-11T16:11:06.803Z,1025.83
2019-04-11T16:15:07.989Z,1025.81
2019-04-11T16:20:06.600Z,1025.81
2019-04-11T16:25:07.800Z,1025.87
2019-04-11T16:30:07.850Z,1025.86
2019-04-11T16:35:06.020Z,1025.84
2019-04-11T16:40:06.553Z,1025.91
2019-04-11T16:44:07.498Z,1025.94
2019-04-11T16:49:06.246Z,1025.96
2019-04-11T16:54:10.665Z,1025.98
2019-04-11T16:59:06.273Z,1026.03
2019-04-11T17:04:05.890Z,1026.08
2019-04-11T17:09:06.581Z,1026.1
2019-04-11T17:14:06.886Z,1026.09
2019-04-11T17:18:06.338Z,1026.13
2019-04-11T17:23:07.184Z,1026.15
2019-04-11T17:28:08.981Z,1026.18
2019-04-11T17:33:06.117Z,1026.16
2019-04-11T17:38:08.010Z,1026.29
2019-04-11T17:43:06.778Z,1026.27
2019-04-11T17:48:06.720Z,1026.36
2019-04-11T17:52:06.101Z,1026.46
2019-04-11T17:57:06.861Z,1026.4
2019-04-11T18:02:10.066Z,1026.47
2019-04-11T18:07:06.044Z,1026.55
2019-04-11T18:12:06.724Z,1026.54
2019-04-11T18:17:06.453Z,1026.62
2019-04-11T18:21:07.912Z,1026.72
2019-04-11T18:22:07.974Z,1026.72
2019-04-11T18:26:06.102Z,1026.8
2019-04-11T18:31:06.796Z,1026.88
2019-04-11T18:36:06.397Z,1026.89
2019-04-11T18:41:06.657Z,1026.97
2019-04-11T18:46:06.142Z,1026.95
2019-04-11T18:51:07.009Z,1026.92
2019-04-11T18:55:06.774Z,1026.97
2019-04-11T19:00:09.255Z,1026.97
2019-04-11T19:05:06.719Z,1027.09
2019-04-11T19:10:06.949Z,1027.07
2019-04-11T19:15:08.181Z,1027.08
2019-04-11T19:20:07.008Z,1027.1
2019-04-11T19:25:06.452Z,1027.07
2019-04-11T19:29:06.949Z,1027.09
2019-04-11T19:30:07.917Z,1027.09
2019-04-11T19:34:08.519Z,1027.11
2019-04-11T19:39:06.513Z,1027.13
2019-04-11T19:44:06.730Z,1027.06
2019-04-11T19:49:06.136Z,1027.07
2019-04-11T19:54:07.688Z,1027.06
2019-04-11T19:59:05.952Z,1027.05
2019-04-11T20:03:08.451Z,1027.05
2019-04-11T20:04:06.548Z,1027.05
2019-04-11T20:08:05.994Z,1027.12
2019-04-11T20:13:06.678Z,1027.11
2019-04-11T20:18:06.555Z,1027.06
2019-04-11T20:23:10.398Z,1027.11
2019-04-11T20:28:06.653Z,1027.17
2019-04-11T20:33:06.877Z,1027.11
2019-04-11T20:38:06.121Z,1027.14
2019-04-11T20:42:06.010Z,1027.2
2019-04-11T20:47:06.497Z,1027.18
2019-04-11T20:52:06.661Z,1027.18
2019-04-11T20:57:06.906Z,1027.2
2019-04-11T21:02:06.597Z,1027.14
2019-04-11T21:07:06.114Z,1027.15
2019-04-11T21:12:07.409Z,1027.17
2019-04-11T21:16:06.388Z,1027.17
2019-04-11T21:21:06.722Z,1027.18
2019-04-11T21:26:05.901Z,1027.19
2019-04-11T21:31:06.848Z,1027.2
2019-04-11T21:36:06.056Z,1027.2
2019-04-11T21:41:06.747Z,1027.29
2019-04-11T21:46:06.779Z,1027.3
2019-04-11T21:50:09.371Z,1027.28
2019-04-11T21:55:06.351Z,1027.27
2019-04-11T22:00:08.531Z,1027.31
2019-04-11T22:05:06.415Z,1027.28
2019-04-11T22:10:08.019Z,1027.26
2019-04-11T22:15:12.548Z,1027.32
2019-04-11T22:20:06.816Z,1027.25
2019-04-11T22:24:07.470Z,1027.25
2019-04-11T22:25:06.439Z,1027.25
2019-04-11T22:29:07.371Z,1027.29
2019-04-11T22:34:06.315Z,1027.28
2019-04-11T22:39:06.935Z,1027.28
2019-04-11T22:44:08.604Z,1027.24
2019-04-11T22:49:09.479Z,1027.18
2019-04-11T22:54:06.809Z,1027.28
2019-04-11T22:59:06.915Z,1027.31
2019-04-11T23:03:06.999Z,1027.3
2019-04-11T23:08:07.151Z,1027.24
2019-04-11T23:13:06.904Z,1027.26
2019-04-11T23:18:06.933Z,1027.26
2019-04-11T23:23:07.186Z,1027.14
2019-04-11T23:28:06.439Z,1027.2
2019-04-11T23:33:06.439Z,1027.25
2019-04-11T23:38:06.539Z,1027.31
2019-04-11T23:43:07.043Z,1027.22
2019-04-11T23:47:06.312Z,1027.23
2019-04-11T23:52:06.519Z,1027.34
2019-04-11T23:57:06.707Z,1027.29
